sensor_id;sensor_type;location;lat;lon;timestamp;temperature;humidity
81800;DHT22;71195;52.528;5.704;2023-12-29T00:00:09;11.60;66.50
81800;DHT22;71195;52.528;5.704;2023-12-29T00:02:42;11.60;66.60
81800;DHT22;71195;52.528;5.704;2023-12-29T00:05:11;11.50;66.70
81800;DHT22;71195;52.528;5.704;2023-12-29T00:07:40;11.50;66.70
81800;DHT22;71195;52.528;5.704;2023-12-29T00:10:09;11.50;66.70
81800;DHT22;71195;52.528;5.704;2023-12-29T00:12:39;11.50;66.70
81800;DHT22;71195;52.528;5.704;2023-12-29T00:15:08;11.50;66.70
81800;DHT22;71195;52.528;5.704;2023-12-29T00:17:37;11.50;66.80
81800;DHT22;71195;52.528;5.704;2023-12-29T00:20:10;11.50;66.80
81800;DHT22;71195;52.528;5.704;2023-12-29T00:22:39;11.50;66.80
81800;DHT22;71195;52.528;5.704;2023-12-29T00:25:08;11.50;66.80
81800;DHT22;71195;52.528;5.704;2023-12-29T00:27:37;11.50;66.80
81800;DHT22;71195;52.528;5.704;2023-12-29T00:30:08;11.50;66.80
81800;DHT22;71195;52.528;5.704;2023-12-29T00:32:38;11.50;66.90
81800;DHT22;71195;52.528;5.704;2023-12-29T00:35:10;11.50;66.90
81800;DHT22;71195;52.528;5.704;2023-12-29T00:37:39;11.50;66.90
81800;DHT22;71195;52.528;5.704;2023-12-29T00:40:09;11.50;67.00
81800;DHT22;71195;52.528;5.704;2023-12-29T00:42:39;11.50;67.00
81800;DHT22;71195;52.528;5.704;2023-12-29T00:45:08;11.50;66.90
81800;DHT22;71195;52.528;5.704;2023-12-29T00:47:38;11.50;66.90
81800;DHT22;71195;52.528;5.704;2023-12-29T00:50:10;11.50;66.90
81800;DHT22;71195;52.528;5.704;2023-12-29T00:52:39;11.60;66.90
81800;DHT22;71195;52.528;5.704;2023-12-29T00:55:08;11.50;66.90
81800;DHT22;71195;52.528;5.704;2023-12-29T00:57:37;11.50;67.00
81800;DHT22;71195;52.528;5.704;2023-12-29T01:00:10;11.50;67.00
81800;DHT22;71195;52.528;5.704;2023-12-29T01:02:39;11.50;67.10
81800;DHT22;71195;52.528;5.704;2023-12-29T01:05:15;11.50;67.20
81800;DHT22;71195;52.528;5.704;2023-12-29T01:07:45;11.50;67.10
81800;DHT22;71195;52.528;5.704;2023-12-29T01:10:14;11.50;67.20
81800;DHT22;71195;52.528;5.704;2023-12-29T01:12:43;11.50;67.20
81800;DHT22;71195;52.528;5.704;2023-12-29T01:15:15;11.50;67.40
81800;DHT22;71195;52.528;5.704;2023-12-29T01:17:44;11.40;67.50
81800;DHT22;71195;52.528;5.704;2023-12-29T01:20:16;11.40;67.60
81800;DHT22;71195;52.528;5.704;2023-12-29T01:22:45;11.40;67.60
81800;DHT22;71195;52.528;5.704;2023-12-29T01:25:14;11.40;67.60
81800;DHT22;71195;52.528;5.704;2023-12-29T01:27:43;11.40;67.60
81800;DHT22;71195;52.528;5.704;2023-12-29T01:30:13;11.40;67.70
81800;DHT22;71195;52.528;5.704;2023-12-29T01:32:42;11.40;67.70
81800;DHT22;71195;52.528;5.704;2023-12-29T01:35:11;11.40;67.70
81800;DHT22;71195;52.528;5.704;2023-12-29T01:37:43;11.40;67.60
81800;DHT22;71195;52.528;5.704;2023-12-29T01:40:12;11.40;67.60
81800;DHT22;71195;52.528;5.704;2023-12-29T01:42:42;11.50;67.60
81800;DHT22;71195;52.528;5.704;2023-12-29T01:45:20;11.50;67.60
81800;DHT22;71195;52.528;5.704;2023-12-29T01:47:50;11.50;67.60
81800;DHT22;71195;52.528;5.704;2023-12-29T01:50:21;11.50;67.60
81800;DHT22;71195;52.528;5.704;2023-12-29T01:52:53;11.50;67.50
81800;DHT22;71195;52.528;5.704;2023-12-29T01:55:21;11.50;67.50
81800;DHT22;71195;52.528;5.704;2023-12-29T01:57:51;11.50;67.50
81800;DHT22;71195;52.528;5.704;2023-12-29T02:00:20;11.60;67.40
81800;DHT22;71195;52.528;5.704;2023-12-29T02:02:50;11.60;67.30
81800;DHT22;71195;52.528;5.704;2023-12-29T02:05:20;11.70;67.30
81800;DHT22;71195;52.528;5.704;2023-12-29T02:07:54;11.70;67.30
81800;DHT22;71195;52.528;5.704;2023-12-29T02:10:23;11.70;67.20
81800;DHT22;71195;52.528;5.704;2023-12-29T02:12:52;11.70;67.20
81800;DHT22;71195;52.528;5.704;2023-12-29T02:15:25;11.70;67.20
81800;DHT22;71195;52.528;5.704;2023-12-29T02:18:01;11.70;67.20
81800;DHT22;71195;52.528;5.704;2023-12-29T02:20:31;11.70;67.20
81800;DHT22;71195;52.528;5.704;2023-12-29T02:23:03;11.70;67.20
81800;DHT22;71195;52.528;5.704;2023-12-29T02:25:35;11.70;67.20
81800;DHT22;71195;52.528;5.704;2023-12-29T02:28:13;11.70;67.20
81800;DHT22;71195;52.528;5.704;2023-12-29T02:30:47;11.70;67.20
81800;DHT22;71195;52.528;5.704;2023-12-29T02:33:21;11.70;67.20
81800;DHT22;71195;52.528;5.704;2023-12-29T02:35:52;11.70;67.20
81800;DHT22;71195;52.528;5.704;2023-12-29T02:38:24;11.70;67.30
81800;DHT22;71195;52.528;5.704;2023-12-29T02:40:57;11.70;67.30
81800;DHT22;71195;52.528;5.704;2023-12-29T02:43:27;11.70;67.30
81800;DHT22;71195;52.528;5.704;2023-12-29T02:45:56;11.70;67.40
81800;DHT22;71195;52.528;5.704;2023-12-29T02:48:25;11.70;67.30
81800;DHT22;71195;52.528;5.704;2023-12-29T02:50:54;11.70;67.40
81800;DHT22;71195;52.528;5.704;2023-12-29T02:53:23;11.70;67.40
81800;DHT22;71195;52.528;5.704;2023-12-29T02:55:52;11.60;67.40
81800;DHT22;71195;52.528;5.704;2023-12-29T02:58:24;11.60;67.50
81800;DHT22;71195;52.528;5.704;2023-12-29T03:00:54;11.50;67.60
81800;DHT22;71195;52.528;5.704;2023-12-29T03:03:23;11.50;67.70
81800;DHT22;71195;52.528;5.704;2023-12-29T03:05:52;11.50;67.80
81800;DHT22;71195;52.528;5.704;2023-12-29T03:08:21;11.50;67.90
81800;DHT22;71195;52.528;5.704;2023-12-29T03:10:50;11.50;68.00
81800;DHT22;71195;52.528;5.704;2023-12-29T03:13:20;11.40;68.00
81800;DHT22;71195;52.528;5.704;2023-12-29T03:15:52;11.40;68.00
81800;DHT22;71195;52.528;5.704;2023-12-29T03:18:21;11.40;68.10
81800;DHT22;71195;52.528;5.704;2023-12-29T03:20:50;11.40;68.10
81800;DHT22;71195;52.528;5.704;2023-12-29T03:23:19;11.40;68.10
81800;DHT22;71195;52.528;5.704;2023-12-29T03:25:48;11.40;68.20
81800;DHT22;71195;52.528;5.704;2023-12-29T03:28:17;11.40;68.30
81800;DHT22;71195;52.528;5.704;2023-12-29T03:30:46;11.40;68.20
81800;DHT22;71195;52.528;5.704;2023-12-29T03:33:18;11.40;68.10
81800;DHT22;71195;52.528;5.704;2023-12-29T03:35:47;11.40;68.00
81800;DHT22;71195;52.528;5.704;2023-12-29T03:38:16;11.40;68.00
81800;DHT22;71195;52.528;5.704;2023-12-29T03:40:45;11.40;68.00
81800;DHT22;71195;52.528;5.704;2023-12-29T03:43:14;11.40;67.90
81800;DHT22;71195;52.528;5.704;2023-12-29T03:45:43;11.40;67.90
81800;DHT22;71195;52.528;5.704;2023-12-29T03:48:13;11.40;67.90
81800;DHT22;71195;52.528;5.704;2023-12-29T03:50:44;11.40;67.90
81800;DHT22;71195;52.528;5.704;2023-12-29T03:53:13;11.40;67.90
81800;DHT22;71195;52.528;5.704;2023-12-29T03:55:45;11.40;67.80
81800;DHT22;71195;52.528;5.704;2023-12-29T03:58:15;11.40;67.90
81800;DHT22;71195;52.528;5.704;2023-12-29T04:00:44;11.40;67.80
81800;DHT22;71195;52.528;5.704;2023-12-29T04:03:13;11.40;67.80
81800;DHT22;71195;52.528;5.704;2023-12-29T04:05:45;11.40;67.80
81800;DHT22;71195;52.528;5.704;2023-12-29T04:08:14;11.40;67.70
81800;DHT22;71195;52.528;5.704;2023-12-29T04:10:43;11.40;67.70
81800;DHT22;71195;52.528;5.704;2023-12-29T04:13:13;11.40;67.60
81800;DHT22;71195;52.528;5.704;2023-12-29T04:15:42;11.40;67.70
81800;DHT22;71195;52.528;5.704;2023-12-29T04:18:11;11.40;67.70
81800;DHT22;71195;52.528;5.704;2023-12-29T04:20:40;11.40;67.70
81800;DHT22;71195;52.528;5.704;2023-12-29T04:23:14;11.30;67.60
81800;DHT22;71195;52.528;5.704;2023-12-29T04:25:44;11.30;67.60
81800;DHT22;71195;52.528;5.704;2023-12-29T04:28:13;11.30;67.60
81800;DHT22;71195;52.528;5.704;2023-12-29T04:30:42;11.40;67.50
81800;DHT22;71195;52.528;5.704;2023-12-29T04:33:11;11.40;67.40
81800;DHT22;71195;52.528;5.704;2023-12-29T04:35:40;11.30;67.30
81800;DHT22;71195;52.528;5.704;2023-12-29T04:38:10;11.30;67.20
81800;DHT22;71195;52.528;5.704;2023-12-29T04:40:41;11.30;67.20
81800;DHT22;71195;52.528;5.704;2023-12-29T04:43:10;11.30;67.20
81800;DHT22;71195;52.528;5.704;2023-12-29T04:45:40;11.30;67.20
81800;DHT22;71195;52.528;5.704;2023-12-29T04:48:09;11.30;67.10
81800;DHT22;71195;52.528;5.704;2023-12-29T04:50:38;11.30;67.10
81800;DHT22;71195;52.528;5.704;2023-12-29T04:53:07;11.30;67.10
81800;DHT22;71195;52.528;5.704;2023-12-29T04:55:36;11.20;67.00
81800;DHT22;71195;52.528;5.704;2023-12-29T04:58:08;11.20;67.00
81800;DHT22;71195;52.528;5.704;2023-12-29T05:00:37;11.20;67.00
81800;DHT22;71195;52.528;5.704;2023-12-29T05:03:06;11.10;66.90
81800;DHT22;71195;52.528;5.704;2023-12-29T05:05:35;11.20;66.90
81800;DHT22;71195;52.528;5.704;2023-12-29T05:08:04;11.20;66.70
81800;DHT22;71195;52.528;5.704;2023-12-29T05:10:34;11.20;66.70
81800;DHT22;71195;52.528;5.704;2023-12-29T05:13:04;11.20;66.70
81800;DHT22;71195;52.528;5.704;2023-12-29T05:15:36;11.20;66.60
81800;DHT22;71195;52.528;5.704;2023-12-29T05:18:05;11.20;66.70
81800;DHT22;71195;52.528;5.704;2023-12-29T05:20:34;11.20;66.80
81800;DHT22;71195;52.528;5.704;2023-12-29T05:23:04;11.20;66.80
81800;DHT22;71195;52.528;5.704;2023-12-29T05:25:33;11.20;66.80
81800;DHT22;71195;52.528;5.704;2023-12-29T05:28:02;11.20;66.80
81800;DHT22;71195;52.528;5.704;2023-12-29T05:30:31;11.30;66.80
81800;DHT22;71195;52.528;5.704;2023-12-29T05:33:03;11.30;66.80
81800;DHT22;71195;52.528;5.704;2023-12-29T05:35:32;11.30;66.80
81800;DHT22;71195;52.528;5.704;2023-12-29T05:38:01;11.30;66.80
81800;DHT22;71195;52.528;5.704;2023-12-29T05:40:30;11.40;66.80
81800;DHT22;71195;52.528;5.704;2023-12-29T05:43:00;11.40;66.80
81800;DHT22;71195;52.528;5.704;2023-12-29T05:45:29;11.40;66.80
81800;DHT22;71195;52.528;5.704;2023-12-29T05:47:58;11.40;66.70
81800;DHT22;71195;52.528;5.704;2023-12-29T05:50:30;11.40;66.80
81800;DHT22;71195;52.528;5.704;2023-12-29T05:52:59;11.40;66.80
81800;DHT22;71195;52.528;5.704;2023-12-29T05:55:29;11.50;66.80
81800;DHT22;71195;52.528;5.704;2023-12-29T05:57:58;11.50;66.80
81800;DHT22;71195;52.528;5.704;2023-12-29T06:00:27;11.50;66.80
81800;DHT22;71195;52.528;5.704;2023-12-29T06:02:57;11.50;66.80
81800;DHT22;71195;52.528;5.704;2023-12-29T06:05:26;11.50;66.70
81800;DHT22;71195;52.528;5.704;2023-12-29T06:07:58;11.50;66.80
81800;DHT22;71195;52.528;5.704;2023-12-29T06:10:27;11.50;66.80
81800;DHT22;71195;52.528;5.704;2023-12-29T06:12:57;11.50;66.70
81800;DHT22;71195;52.528;5.704;2023-12-29T06:15:26;11.60;66.70
81800;DHT22;71195;52.528;5.704;2023-12-29T06:17:56;11.60;66.70
81800;DHT22;71195;52.528;5.704;2023-12-29T06:20:26;11.60;66.70
81800;DHT22;71195;52.528;5.704;2023-12-29T06:22:59;11.70;66.60
81800;DHT22;71195;52.528;5.704;2023-12-29T06:25:28;11.70;66.60
81800;DHT22;71195;52.528;5.704;2023-12-29T06:27:59;11.70;66.60
81800;DHT22;71195;52.528;5.704;2023-12-29T06:30:30;11.70;66.60
81800;DHT22;71195;52.528;5.704;2023-12-29T06:32:59;11.70;66.60
81800;DHT22;71195;52.528;5.704;2023-12-29T06:35:28;11.70;66.60
81800;DHT22;71195;52.528;5.704;2023-12-29T06:38:00;11.70;66.60
81800;DHT22;71195;52.528;5.704;2023-12-29T06:40:29;11.70;66.60
81800;DHT22;71195;52.528;5.704;2023-12-29T06:42:58;11.70;66.50
81800;DHT22;71195;52.528;5.704;2023-12-29T06:45:28;11.70;66.60
81800;DHT22;71195;52.528;5.704;2023-12-29T06:47:57;11.70;66.50
81800;DHT22;71195;52.528;5.704;2023-12-29T06:50:26;11.80;66.60
81800;DHT22;71195;52.528;5.704;2023-12-29T06:52:55;11.70;66.60
81800;DHT22;71195;52.528;5.704;2023-12-29T06:55:27;11.70;66.70
81800;DHT22;71195;52.528;5.704;2023-12-29T06:57:57;11.70;66.80
81800;DHT22;71195;52.528;5.704;2023-12-29T07:00:26;11.70;66.70
81800;DHT22;71195;52.528;5.704;2023-12-29T07:02:55;11.70;66.90
81800;DHT22;71195;52.528;5.704;2023-12-29T07:05:24;11.70;66.90
81800;DHT22;71195;52.528;5.704;2023-12-29T07:07:54;11.70;66.90
81800;DHT22;71195;52.528;5.704;2023-12-29T07:10:23;11.70;66.90
81800;DHT22;71195;52.528;5.704;2023-12-29T07:12:55;11.70;66.90
81800;DHT22;71195;52.528;5.704;2023-12-29T07:15:24;11.70;67.00
81800;DHT22;71195;52.528;5.704;2023-12-29T07:17:53;11.60;67.10
81800;DHT22;71195;52.528;5.704;2023-12-29T07:20:22;11.60;67.10
81800;DHT22;71195;52.528;5.704;2023-12-29T07:22:52;11.60;67.20
81800;DHT22;71195;52.528;5.704;2023-12-29T07:25:21;11.60;67.10
81800;DHT22;71195;52.528;5.704;2023-12-29T07:27:50;11.60;67.20
81800;DHT22;71195;52.528;5.704;2023-12-29T07:30:22;11.70;67.10
81800;DHT22;71195;52.528;5.704;2023-12-29T07:32:52;11.70;67.10
81800;DHT22;71195;52.528;5.704;2023-12-29T07:35:21;11.70;67.10
81800;DHT22;71195;52.528;5.704;2023-12-29T07:37:50;11.70;67.10
81800;DHT22;71195;52.528;5.704;2023-12-29T07:40:20;11.70;67.10
81800;DHT22;71195;52.528;5.704;2023-12-29T07:42:49;11.70;67.10
81800;DHT22;71195;52.528;5.704;2023-12-29T07:45:19;11.70;67.10
81800;DHT22;71195;52.528;5.704;2023-12-29T07:47:51;11.70;67.10
81800;DHT22;71195;52.528;5.704;2023-12-29T07:50:20;11.70;67.10
81800;DHT22;71195;52.528;5.704;2023-12-29T07:52:49;11.70;67.20
81800;DHT22;71195;52.528;5.704;2023-12-29T07:55:18;11.70;67.20
81800;DHT22;71195;52.528;5.704;2023-12-29T07:57:47;11.70;67.20
81800;DHT22;71195;52.528;5.704;2023-12-29T08:00:17;11.70;67.20
81800;DHT22;71195;52.528;5.704;2023-12-29T08:02:46;11.70;67.20
81800;DHT22;71195;52.528;5.704;2023-12-29T08:05:18;11.70;67.20
81800;DHT22;71195;52.528;5.704;2023-12-29T08:07:47;11.70;67.10
81800;DHT22;71195;52.528;5.704;2023-12-29T08:10:17;11.70;67.10
81800;DHT22;71195;52.528;5.704;2023-12-29T08:12:46;11.70;67.20
81800;DHT22;71195;52.528;5.704;2023-12-29T08:15:15;11.70;67.20
81800;DHT22;71195;52.528;5.704;2023-12-29T08:17:44;11.70;67.20
81800;DHT22;71195;52.528;5.704;2023-12-29T08:20:13;11.70;67.10
81800;DHT22;71195;52.528;5.704;2023-12-29T08:22:45;11.70;67.20
81800;DHT22;71195;52.528;5.704;2023-12-29T08:25:14;11.70;67.20
81800;DHT22;71195;52.528;5.704;2023-12-29T08:27:44;11.70;67.20
81800;DHT22;71195;52.528;5.704;2023-12-29T08:30:13;11.70;67.20
81800;DHT22;71195;52.528;5.704;2023-12-29T08:32:43;11.70;67.30
81800;DHT22;71195;52.528;5.704;2023-12-29T08:35:12;11.70;67.40
81800;DHT22;71195;52.528;5.704;2023-12-29T08:37:41;11.70;67.40
81800;DHT22;71195;52.528;5.704;2023-12-29T08:40:13;11.70;67.40
81800;DHT22;71195;52.528;5.704;2023-12-29T08:42:42;11.70;67.30
81800;DHT22;71195;52.528;5.704;2023-12-29T08:45:11;11.80;67.30
81800;DHT22;71195;52.528;5.704;2023-12-29T08:47:40;11.70;67.30
81800;DHT22;71195;52.528;5.704;2023-12-29T08:50:09;11.70;67.40
81800;DHT22;71195;52.528;5.704;2023-12-29T08:52:38;11.70;67.40
81800;DHT22;71195;52.528;5.704;2023-12-29T08:55:08;11.70;67.50
81800;DHT22;71195;52.528;5.704;2023-12-29T08:57:39;11.70;67.50
81800;DHT22;71195;52.528;5.704;2023-12-29T09:00:09;11.70;67.50
81800;DHT22;71195;52.528;5.704;2023-12-29T09:02:38;11.70;67.60
81800;DHT22;71195;52.528;5.704;2023-12-29T09:05:08;11.70;67.60
81800;DHT22;71195;52.528;5.704;2023-12-29T09:07:37;11.70;67.80
81800;DHT22;71195;52.528;5.704;2023-12-29T09:10:07;11.70;67.80
81800;DHT22;71195;52.528;5.704;2023-12-29T09:12:41;11.60;68.00
81800;DHT22;71195;52.528;5.704;2023-12-29T09:15:10;11.60;68.10
81800;DHT22;71195;52.528;5.704;2023-12-29T09:17:39;11.50;68.20
81800;DHT22;71195;52.528;5.704;2023-12-29T09:20:09;11.50;68.10
81800;DHT22;71195;52.528;5.704;2023-12-29T09:22:40;11.60;68.10
81800;DHT22;71195;52.528;5.704;2023-12-29T09:25:09;11.60;68.10
81800;DHT22;71195;52.528;5.704;2023-12-29T09:27:41;11.60;68.10
81800;DHT22;71195;52.528;5.704;2023-12-29T09:30:11;11.60;68.20
81800;DHT22;71195;52.528;5.704;2023-12-29T09:32:40;11.70;68.20
81800;DHT22;71195;52.528;5.704;2023-12-29T09:35:09;11.60;68.20
81800;DHT22;71195;52.528;5.704;2023-12-29T09:37:39;11.60;68.30
81800;DHT22;71195;52.528;5.704;2023-12-29T09:40:10;11.60;68.30
81800;DHT22;71195;52.528;5.704;2023-12-29T09:42:43;11.60;68.40
81800;DHT22;71195;52.528;5.704;2023-12-29T09:45:13;11.60;68.40
81800;DHT22;71195;52.528;5.704;2023-12-29T09:47:43;11.60;68.40
81800;DHT22;71195;52.528;5.704;2023-12-29T09:50:13;11.70;68.40
81800;DHT22;71195;52.528;5.704;2023-12-29T09:52:43;11.70;68.40
81800;DHT22;71195;52.528;5.704;2023-12-29T09:55:12;11.70;68.30
81800;DHT22;71195;52.528;5.704;2023-12-29T09:57:44;11.70;68.30
81800;DHT22;71195;52.528;5.704;2023-12-29T10:00:16;11.70;68.20
81800;DHT22;71195;52.528;5.704;2023-12-29T10:02:46;11.70;68.30
81800;DHT22;71195;52.528;5.704;2023-12-29T10:05:19;11.80;68.20
81800;DHT22;71195;52.528;5.704;2023-12-29T10:07:49;11.80;68.20
81800;DHT22;71195;52.528;5.704;2023-12-29T10:10:20;11.80;68.30
81800;DHT22;71195;52.528;5.704;2023-12-29T10:12:53;11.90;68.20
81800;DHT22;71195;52.528;5.704;2023-12-29T10:15:29;11.90;68.20
81800;DHT22;71195;52.528;5.704;2023-12-29T10:18:09;11.90;68.20
81800;DHT22;71195;52.528;5.704;2023-12-29T10:20:45;11.90;68.20
81800;DHT22;71195;52.528;5.704;2023-12-29T10:23:19;11.90;68.20
81800;DHT22;71195;52.528;5.704;2023-12-29T10:25:49;11.90;68.20
81800;DHT22;71195;52.528;5.704;2023-12-29T10:28:21;11.90;68.20
81800;DHT22;71195;52.528;5.704;2023-12-29T10:30:50;11.90;68.20
81800;DHT22;71195;52.528;5.704;2023-12-29T10:33:20;11.90;68.20
81800;DHT22;71195;52.528;5.704;2023-12-29T10:35:57;11.90;68.20
81800;DHT22;71195;52.528;5.704;2023-12-29T10:38:29;11.90;68.30
81800;DHT22;71195;52.528;5.704;2023-12-29T10:41:10;12.00;68.20
81800;DHT22;71195;52.528;5.704;2023-12-29T10:43:45;12.00;68.30
81800;DHT22;71195;52.528;5.704;2023-12-29T10:46:18;12.00;68.30
81800;DHT22;71195;52.528;5.704;2023-12-29T10:48:47;12.00;68.20
81800;DHT22;71195;52.528;5.704;2023-12-29T10:51:26;12.10;68.10
81800;DHT22;71195;52.528;5.704;2023-12-29T10:53:56;12.20;68.20
81800;DHT22;71195;52.528;5.704;2023-12-29T10:56:26;12.20;68.10
81800;DHT22;71195;52.528;5.704;2023-12-29T10:59:03;12.20;68.00
81800;DHT22;71195;52.528;5.704;2023-12-29T11:01:33;12.20;68.00
81800;DHT22;71195;52.528;5.704;2023-12-29T11:04:04;12.20;68.00
81800;DHT22;71195;52.528;5.704;2023-12-29T11:06:39;12.20;68.00
81800;DHT22;71195;52.528;5.704;2023-12-29T11:09:10;12.20;67.90
81800;DHT22;71195;52.528;5.704;2023-12-29T11:11:39;12.20;68.00
81800;DHT22;71195;52.528;5.704;2023-12-29T11:14:09;12.30;67.90
81800;DHT22;71195;52.528;5.704;2023-12-29T11:16:39;12.30;67.80
81800;DHT22;71195;52.528;5.704;2023-12-29T11:19:11;12.30;67.70
81800;DHT22;71195;52.528;5.704;2023-12-29T11:21:42;12.30;67.70
81800;DHT22;71195;52.528;5.704;2023-12-29T11:24:12;12.40;67.50
81800;DHT22;71195;52.528;5.704;2023-12-29T11:26:42;12.40;67.50
81800;DHT22;71195;52.528;5.704;2023-12-29T11:29:15;12.40;67.50
81800;DHT22;71195;52.528;5.704;2023-12-29T11:31:46;12.50;67.40
81800;DHT22;71195;52.528;5.704;2023-12-29T11:34:20;12.50;67.30
81800;DHT22;71195;52.528;5.704;2023-12-29T11:36:57;12.50;67.20
81800;DHT22;71195;52.528;5.704;2023-12-29T11:39:33;12.50;67.10
81800;DHT22;71195;52.528;5.704;2023-12-29T11:42:12;12.50;67.10
81800;DHT22;71195;52.528;5.704;2023-12-29T11:44:46;12.50;67.00
81800;DHT22;71195;52.528;5.704;2023-12-29T11:47:35;12.50;66.90
81800;DHT22;71195;52.528;5.704;2023-12-29T11:50:05;12.50;66.70
81800;DHT22;71195;52.528;5.704;2023-12-29T11:52:35;12.50;66.70
81800;DHT22;71195;52.528;5.704;2023-12-29T11:55:08;12.50;66.70
81800;DHT22;71195;52.528;5.704;2023-12-29T11:57:38;12.50;66.60
81800;DHT22;71195;52.528;5.704;2023-12-29T12:00:11;12.50;66.60
81800;DHT22;71195;52.528;5.704;2023-12-29T12:02:42;12.50;66.40
81800;DHT22;71195;52.528;5.704;2023-12-29T12:05:11;12.50;66.40
81800;DHT22;71195;52.528;5.704;2023-12-29T12:07:58;12.50;66.30
81800;DHT22;71195;52.528;5.704;2023-12-29T12:10:30;12.50;66.20
81800;DHT22;71195;52.528;5.704;2023-12-29T12:13:00;12.50;66.10
81800;DHT22;71195;52.528;5.704;2023-12-29T12:15:35;12.50;66.10
81800;DHT22;71195;52.528;5.704;2023-12-29T12:18:05;12.50;66.00
81800;DHT22;71195;52.528;5.704;2023-12-29T12:20:35;12.50;66.00
81800;DHT22;71195;52.528;5.704;2023-12-29T12:23:10;12.50;65.90
81800;DHT22;71195;52.528;5.704;2023-12-29T12:25:41;12.50;65.80
81800;DHT22;71195;52.528;5.704;2023-12-29T12:28:10;12.50;65.80
81800;DHT22;71195;52.528;5.704;2023-12-29T12:30:44;12.50;65.70
81800;DHT22;71195;52.528;5.704;2023-12-29T12:33:13;12.50;65.50
81800;DHT22;71195;52.528;5.704;2023-12-29T12:35:43;12.50;65.50
81800;DHT22;71195;52.528;5.704;2023-12-29T12:38:14;12.50;65.40
81800;DHT22;71195;52.528;5.704;2023-12-29T12:40:46;12.50;65.30
81800;DHT22;71195;52.528;5.704;2023-12-29T12:43:16;12.50;65.30
81800;DHT22;71195;52.528;5.704;2023-12-29T12:45:58;12.50;65.20
81800;DHT22;71195;52.528;5.704;2023-12-29T12:48:33;12.50;65.00
81800;DHT22;71195;52.528;5.704;2023-12-29T12:51:05;12.40;65.10
81800;DHT22;71195;52.528;5.704;2023-12-29T12:53:34;12.40;65.00
81800;DHT22;71195;52.528;5.704;2023-12-29T12:56:06;12.40;64.90
81800;DHT22;71195;52.528;5.704;2023-12-29T12:58:35;12.40;64.80
81800;DHT22;71195;52.528;5.704;2023-12-29T13:01:07;12.40;64.80
81800;DHT22;71195;52.528;5.704;2023-12-29T13:03:38;12.40;64.70
81800;DHT22;71195;52.528;5.704;2023-12-29T13:06:07;12.50;64.70
81800;DHT22;71195;52.528;5.704;2023-12-29T13:08:36;12.50;64.70
81800;DHT22;71195;52.528;5.704;2023-12-29T13:11:05;12.50;64.50
81800;DHT22;71195;52.528;5.704;2023-12-29T13:13:38;12.50;64.50
81800;DHT22;71195;52.528;5.704;2023-12-29T13:16:10;12.50;64.40
81800;DHT22;71195;52.528;5.704;2023-12-29T13:18:40;12.50;64.30
81800;DHT22;71195;52.528;5.704;2023-12-29T13:21:09;12.50;64.30
81800;DHT22;71195;52.528;5.704;2023-12-29T13:23:38;12.50;64.30
81800;DHT22;71195;52.528;5.704;2023-12-29T13:26:10;12.50;64.20
81800;DHT22;71195;52.528;5.704;2023-12-29T13:28:40;12.50;64.00
81800;DHT22;71195;52.528;5.704;2023-12-29T13:31:13;12.50;64.00
81800;DHT22;71195;52.528;5.704;2023-12-29T13:33:49;12.50;64.00
81800;DHT22;71195;52.528;5.704;2023-12-29T13:36:25;12.50;64.00
81800;DHT22;71195;52.528;5.704;2023-12-29T13:39:05;12.50;64.00
81800;DHT22;71195;52.528;5.704;2023-12-29T13:41:36;12.40;64.00
81800;DHT22;71195;52.528;5.704;2023-12-29T13:44:06;12.30;64.00
81800;DHT22;71195;52.528;5.704;2023-12-29T13:46:39;12.30;64.00
81800;DHT22;71195;52.528;5.704;2023-12-29T13:49:09;12.30;64.00
81800;DHT22;71195;52.528;5.704;2023-12-29T13:51:38;12.30;64.10
81800;DHT22;71195;52.528;5.704;2023-12-29T13:54:11;12.30;64.00
81800;DHT22;71195;52.528;5.704;2023-12-29T13:56:51;12.30;64.20
81800;DHT22;71195;52.528;5.704;2023-12-29T13:59:29;12.30;64.20
81800;DHT22;71195;52.528;5.704;2023-12-29T14:02:02;12.30;64.20
81800;DHT22;71195;52.528;5.704;2023-12-29T14:04:32;12.30;64.20
81800;DHT22;71195;52.528;5.704;2023-12-29T14:07:02;12.20;64.40
81800;DHT22;71195;52.528;5.704;2023-12-29T14:09:32;12.20;64.30
81800;DHT22;71195;52.528;5.704;2023-12-29T14:12:01;12.20;64.30
81800;DHT22;71195;52.528;5.704;2023-12-29T14:14:31;12.20;64.30
81800;DHT22;71195;52.528;5.704;2023-12-29T14:17:04;12.20;64.40
81800;DHT22;71195;52.528;5.704;2023-12-29T14:19:36;12.20;64.40
81800;DHT22;71195;52.528;5.704;2023-12-29T14:22:06;12.20;64.40
81800;DHT22;71195;52.528;5.704;2023-12-29T14:24:35;12.10;64.40
81800;DHT22;71195;52.528;5.704;2023-12-29T14:27:05;12.10;64.40
81800;DHT22;71195;52.528;5.704;2023-12-29T14:29:40;12.10;64.40
81800;DHT22;71195;52.528;5.704;2023-12-29T14:32:12;12.10;64.40
81800;DHT22;71195;52.528;5.704;2023-12-29T14:34:41;12.10;64.50
81800;DHT22;71195;52.528;5.704;2023-12-29T14:37:12;12.10;64.50
81800;DHT22;71195;52.528;5.704;2023-12-29T14:39:47;12.00;64.50
81800;DHT22;71195;52.528;5.704;2023-12-29T14:42:17;12.10;64.50
81800;DHT22;71195;52.528;5.704;2023-12-29T14:44:46;12.00;64.60
81800;DHT22;71195;52.528;5.704;2023-12-29T14:47:18;12.00;64.50
81800;DHT22;71195;52.528;5.704;2023-12-29T14:49:48;12.10;64.50
81800;DHT22;71195;52.528;5.704;2023-12-29T14:52:17;12.10;64.50
81800;DHT22;71195;52.528;5.704;2023-12-29T14:54:46;12.00;64.60
81800;DHT22;71195;52.528;5.704;2023-12-29T14:57:16;12.00;64.70
81800;DHT22;71195;52.528;5.704;2023-12-29T14:59:45;11.90;64.80
81800;DHT22;71195;52.528;5.704;2023-12-29T15:02:14;11.90;65.00
81800;DHT22;71195;52.528;5.704;2023-12-29T15:04:45;11.80;64.90
81800;DHT22;71195;52.528;5.704;2023-12-29T15:07:15;11.70;65.00
81800;DHT22;71195;52.528;5.704;2023-12-29T15:09:44;11.60;64.90
81800;DHT22;71195;52.528;5.704;2023-12-29T15:12:13;11.50;64.70
81800;DHT22;71195;52.528;5.704;2023-12-29T15:14:42;11.50;64.70
81800;DHT22;71195;52.528;5.704;2023-12-29T15:17:12;11.40;64.70
81800;DHT22;71195;52.528;5.704;2023-12-29T15:19:41;11.30;64.60
81800;DHT22;71195;52.528;5.704;2023-12-29T15:22:12;11.20;64.60
81800;DHT22;71195;52.528;5.704;2023-12-29T15:24:41;11.10;64.40
81800;DHT22;71195;52.528;5.704;2023-12-29T15:27:11;11.00;64.40
81800;DHT22;71195;52.528;5.704;2023-12-29T15:29:40;11.00;64.30
81800;DHT22;71195;52.528;5.704;2023-12-29T15:32:09;10.90;64.10
81800;DHT22;71195;52.528;5.704;2023-12-29T15:34:38;10.80;64.10
81800;DHT22;71195;52.528;5.704;2023-12-29T15:37:07;10.80;64.00
81800;DHT22;71195;52.528;5.704;2023-12-29T15:39:40;10.80;63.90
81800;DHT22;71195;52.528;5.704;2023-12-29T15:42:10;10.70;63.80
81800;DHT22;71195;52.528;5.704;2023-12-29T15:44:39;10.80;63.70
81800;DHT22;71195;52.528;5.704;2023-12-29T15:47:08;10.70;63.60
81800;DHT22;71195;52.528;5.704;2023-12-29T15:49:37;10.80;63.50